Time;durP1;ratioP1;P1;durP2;ratioP2;P2;SDS_P1;SDS_P2;PMS_P1;PMS_P2;Temp;Humidity;BMP_temperature;BMP_pressure;BME280_temperature;BME280_humidity;BME280_pressure;Samples;Min_cycle;Max_cycle;Signal;HPM_P1;HPM_P2
2022/08/02 00:00:57;;;;;;;;;;;20.80;99.90;;;;;;4991857;28;20208;-65
2022/08/02 00:03:25;;;;;;;;;;;20.70;99.90;;;;;;4992856;28;20211;-65
2022/08/02 00:05:53;;;;;;;;;;;20.70;99.90;;;;;;4992632;28;20627;-65
2022/08/02 00:08:21;;;;;;;;;;;20.70;99.90;;;;;;4992642;28;20692;-65
2022/08/02 00:10:48;;;;;;;;;;;20.60;99.90;;;;;;4991667;28;20199;-65
2022/08/02 00:13:17;;;;;;;;;;;20.60;99.90;;;;;;4987002;28;20200;-65
2022/08/02 00:15:45;;;;;;;;;;;20.60;99.90;;;;;;4994036;28;20200;-65
2022/08/02 00:18:13;;;;;;;;;;;20.60;99.90;;;;;;4993979;28;20202;-65
2022/08/02 00:20:41;;;;;;;;;;;20.60;99.90;;;;;;4992231;28;20223;-65
2022/08/02 00:23:08;;;;;;;;;;;20.50;99.90;;;;;;4993319;28;20254;-64
2022/08/02 00:25:36;;;;;;;;;;;20.60;99.90;;;;;;4993437;28;20200;-65
2022/08/02 00:28:24;;;;;;;;;;;20.50;99.90;;;;;;4992415;28;20213;-65
2022/08/02 00:30:55;;;;;;;;;;;20.50;99.90;;;;;;4993578;28;20202;-64
2022/08/02 00:33:22;;;;;;;;;;;20.50;99.90;;;;;;4993504;28;20203;-65
2022/08/02 00:36:10;;;;;;;;;;;20.40;99.90;;;;;;5061345;22;20205;-65
2022/08/02 00:38:38;;;;;;;;;;;20.40;99.90;;;;;;5072588;28;20198;-64
2022/08/02 00:41:10;;;;;;;;;;;20.40;99.90;;;;;;5072390;28;20236;-64
2022/08/02 00:43:40;;;;;;;;;;;20.40;99.90;;;;;;5072274;28;20543;-64
2022/08/02 00:46:07;;;;;;;;;;;20.40;99.90;;;;;;5072518;28;20198;-63
2022/08/02 00:48:35;;;;;;;;;;;20.40;99.90;;;;;;5072724;28;20197;-64
2022/08/02 00:51:08;;;;;;;;;;;20.40;99.90;;;;;;5063482;28;20666;-65
2022/08/02 00:53:35;;;;;;;;;;;20.40;99.90;;;;;;5072391;28;20255;-65
2022/08/02 00:56:03;;;;;;;;;;;20.30;99.90;;;;;;5072585;28;20202;-65
2022/08/02 00:58:31;;;;;;;;;;;20.40;99.90;;;;;;5072179;28;20509;-65
2022/08/02 01:01:00;;;;;;;;;;;20.30;99.90;;;;;;5072053;28;20198;-65
2022/08/02 01:03:28;;;;;;;;;;;20.30;99.90;;;;;;5072192;28;20288;-65
2022/08/02 01:05:56;;;;;;;;;;;20.30;99.90;;;;;;5072621;28;20239;-65
2022/08/02 01:08:38;;;;;;;;;;;20.30;99.90;;;;;;5069741;28;20190;-65
2022/08/02 01:11:06;;;;;;;;;;;20.20;99.90;;;;;;5066349;28;20207;-65
2022/08/02 01:13:33;;;;;;;;;;;20.10;99.90;;;;;;5068898;28;20228;-65
2022/08/02 01:16:06;;;;;;;;;;;20.10;99.90;;;;;;5070972;28;20206;-65
2022/08/02 01:18:38;;;;;;;;;;;20.10;99.90;;;;;;5064393;28;20199;-65
2022/08/02 01:21:14;;;;;;;;;;;20.10;99.90;;;;;;5064386;28;20199;-65
2022/08/02 01:23:47;;;;;;;;;;;20.00;99.90;;;;;;5068270;28;20701;-65
2022/08/02 01:26:26;;;;;;;;;;;20.00;99.90;;;;;;5068126;28;20201;-65
2022/08/02 01:28:58;;;;;;;;;;;20.00;99.90;;;;;;5069629;28;20190;-65
2022/08/02 01:31:29;;;;;;;;;;;20.00;99.90;;;;;;5070199;28;20781;-65
2022/08/02 01:34:01;;;;;;;;;;;20.00;99.90;;;;;;5069659;28;20194;-65
2022/08/02 01:36:30;;;;;;;;;;;20.00;99.90;;;;;;5069630;28;20206;-65
2022/08/02 01:38:59;;;;;;;;;;;19.90;99.90;;;;;;5069178;28;20206;-65
2022/08/02 01:41:28;;;;;;;;;;;19.80;99.90;;;;;;5065947;28;20204;-65
2022/08/02 01:43:59;;;;;;;;;;;19.70;99.90;;;;;;5066032;28;20202;-65
2022/08/02 01:46:28;;;;;;;;;;;19.70;99.90;;;;;;5070173;28;20236;-65
2022/08/02 01:48:57;;;;;;;;;;;19.70;99.90;;;;;;5065717;28;20668;-65
2022/08/02 01:54:09;;;;;;;;;;;19.70;99.90;;;;;;5065909;28;20204;-65
2022/08/02 01:56:38;;;;;;;;;;;19.80;99.90;;;;;;5070262;28;20209;-65
2022/08/02 01:59:10;;;;;;;;;;;19.60;99.90;;;;;;5061671;28;20733;-65
2022/08/02 02:01:38;;;;;;;;;;;19.60;99.90;;;;;;5067873;28;20170;-65
2022/08/02 02:04:07;;;;;;;;;;;19.60;99.90;;;;;;5070167;28;20305;-66
2022/08/02 02:06:36;;;;;;;;;;;19.60;99.90;;;;;;5067036;28;20194;-66
2022/08/02 02:09:05;;;;;;;;;;;19.60;99.90;;;;;;5065610;28;20214;-66
2022/08/02 02:11:33;;;;;;;;;;;19.40;99.90;;;;;;5066004;28;20206;-66
2022/08/02 02:14:24;;;;;;;;;;;19.30;99.90;;;;;;5068012;28;20244;-66
2022/08/02 02:16:52;;;;;;;;;;;19.20;99.90;;;;;;5069448;28;20666;-66
2022/08/02 02:19:20;;;;;;;;;;;19.10;99.90;;;;;;5065045;28;20240;-66
2022/08/02 02:21:49;;;;;;;;;;;19.10;99.90;;;;;;5061461;28;20212;-66
2022/08/02 02:24:17;;;;;;;;;;;19.00;99.90;;;;;;5067163;28;20579;-66
2022/08/02 02:26:46;;;;;;;;;;;19.00;99.90;;;;;;5068817;28;25102;-66
2022/08/02 02:29:21;;;;;;;;;;;19.00;99.90;;;;;;5066647;28;20146;-65
2022/08/02 02:31:51;;;;;;;;;;;19.00;99.90;;;;;;5065654;28;20214;-65
2022/08/02 02:34:24;;;;;;;;;;;18.90;99.90;;;;;;5066743;28;20262;-65
2022/08/02 02:36:53;;;;;;;;;;;18.90;99.90;;;;;;5064452;28;20692;-65
2022/08/02 02:39:22;;;;;;;;;;;18.90;99.90;;;;;;5066932;28;20146;-64
2022/08/02 02:41:51;;;;;;;;;;;18.80;99.90;;;;;;5069362;28;20216;-65
2022/08/02 02:44:20;;;;;;;;;;;18.80;99.90;;;;;;5068947;28;20081;-65
2022/08/02 02:46:50;;;;;;;;;;;18.80;99.90;;;;;;5067864;28;20102;-65
2022/08/02 02:49:20;;;;;;;;;;;18.80;99.90;;;;;;5066272;28;20594;-65
2022/08/02 02:51:48;;;;;;;;;;;18.70;99.90;;;;;;5065644;28;25124;-65
2022/08/02 02:54:17;;;;;;;;;;;18.70;99.90;;;;;;5073172;28;20125;-65
2022/08/02 02:57:01;;;;;;;;;;;18.70;99.90;;;;;;5056901;28;20221;-65
2022/08/02 02:59:30;;;;;;;;;;;18.70;99.90;;;;;;5071319;28;20219;-65
2022/08/02 03:01:58;;;;;;;;;;;18.70;99.90;;;;;;5070923;28;20206;-65
2022/08/02 03:04:28;;;;;;;;;;;18.60;99.90;;;;;;5071117;28;20225;-65
2022/08/02 03:07:16;;;;;;;;;;;18.70;99.90;;;;;;5068250;28;20226;-65
2022/08/02 03:09:44;;;;;;;;;;;18.70;99.90;;;;;;5072192;28;20194;-65
2022/08/02 03:12:21;;;;;;;;;;;18.70;99.90;;;;;;5071833;28;20292;-65
2022/08/02 03:14:55;;;;;;;;;;;18.70;99.90;;;;;;5068931;28;20194;-64
2022/08/02 03:17:23;;;;;;;;;;;18.80;99.90;;;;;;5069420;28;20212;-65
2022/08/02 03:19:52;;;;;;;;;;;18.80;99.90;;;;;;5069044;28;20756;-65
2022/08/02 03:22:19;;;;;;;;;;;18.80;99.90;;;;;;5062563;28;20247;-65
2022/08/02 03:24:47;;;;;;;;;;;18.80;99.90;;;;;;5069737;28;20200;-65
2022/08/02 03:27:15;;;;;;;;;;;18.80;99.90;;;;;;5070851;28;20207;-65
2022/08/02 03:29:43;;;;;;;;;;;18.80;99.90;;;;;;5070429;28;20241;-65
2022/08/02 03:32:11;;;;;;;;;;;18.80;99.90;;;;;;5070640;28;20204;-64
2022/08/02 03:34:39;;;;;;;;;;;18.70;99.90;;;;;;5070143;28;20197;-64
2022/08/02 03:37:08;;;;;;;;;;;18.70;99.90;;;;;;5067881;28;20112;-64
2022/08/02 03:39:36;;;;;;;;;;;18.70;99.90;;;;;;5068356;28;20778;-64
2022/08/02 03:42:18;;;;;;;;;;;18.70;99.90;;;;;;5069926;28;20214;-64
2022/08/02 03:44:47;;;;;;;;;;;18.60;99.90;;;;;;5070424;28;20227;-64
2022/08/02 03:47:15;;;;;;;;;;;18.50;99.90;;;;;;5070238;28;20153;-65
2022/08/02 03:49:43;;;;;;;;;;;18.50;99.90;;;;;;5065699;28;25104;-65
2022/08/02 03:52:12;;;;;;;;;;;18.50;99.90;;;;;;5067041;28;20159;-65
2022/08/02 03:54:40;;;;;;;;;;;18.50;99.90;;;;;;5068891;28;20215;-64
2022/08/02 03:57:12;;;;;;;;;;;18.50;99.90;;;;;;5066706;28;20171;-65
2022/08/02 03:59:41;;;;;;;;;;;18.40;99.90;;;;;;5069342;28;20208;-65
2022/08/02 04:02:09;;;;;;;;;;;18.50;99.90;;;;;;5069342;28;20232;-65
2022/08/02 04:04:38;;;;;;;;;;;18.50;99.90;;;;;;5065405;28;20190;-65
2022/08/02 04:07:05;;;;;;;;;;;18.60;99.90;;;;;;5068122;28;20719;-64
2022/08/02 04:09:35;;;;;;;;;;;18.60;99.90;;;;;;5072023;28;20222;-65
2022/08/02 04:12:03;;;;;;;;;;;18.70;99.90;;;;;;5066574;28;20627;-65
2022/08/02 04:14:31;;;;;;;;;;;18.70;99.90;;;;;;5066199;28;20197;-66
2022/08/02 04:17:05;;;;;;;;;;;18.70;99.90;;;;;;5065564;28;20643;-64
2022/08/02 04:19:36;;;;;;;;;;;18.60;99.90;;;;;;5062678;28;20244;-65
2022/08/02 04:22:04;;;;;;;;;;;18.60;99.90;;;;;;5062555;28;20202;-64
2022/08/02 04:24:35;;;;;;;;;;;18.60;99.90;;;;;;5067431;28;20256;-65
2022/08/02 04:27:07;;;;;;;;;;;18.70;99.90;;;;;;5065632;28;20306;-65
2022/08/02 04:29:56;;;;;;;;;;;18.70;99.90;;;;;;5065233;28;20209;-65
2022/08/02 04:32:24;;;;;;;;;;;18.70;99.90;;;;;;5066808;28;20210;-64
2022/08/02 04:34:52;;;;;;;;;;;18.70;99.90;;;;;;5065255;28;20213;-65
2022/08/02 04:37:40;;;;;;;;;;;18.70;99.90;;;;;;5063361;28;20292;-64
2022/08/02 04:40:28;;;;;;;;;;;18.70;99.90;;;;;;5059329;28;20198;-65
2022/08/02 04:42:57;;;;;;;;;;;18.70;99.90;;;;;;5065908;28;20209;-65
2022/08/02 04:45:25;;;;;;;;;;;18.80;99.90;;;;;;5065717;28;20222;-64
2022/08/02 04:47:53;;;;;;;;;;;18.80;99.90;;;;;;5066232;28;20099;-64
2022/08/02 04:50:31;;;;;;;;;;;18.90;99.90;;;;;;5063979;28;20213;-64
2022/08/02 04:52:59;;;;;;;;;;;19.00;99.90;;;;;;5061979;28;20093;-63
2022/08/02 04:55:28;;;;;;;;;;;19.10;99.90;;;;;;5059878;28;20067;-64
2022/08/02 04:57:58;;;;;;;;;;;19.10;99.90;;;;;;5066747;28;20203;-64
2022/08/02 05:00:26;;;;;;;;;;;19.20;99.90;;;;;;5061516;28;20201;-63
2022/08/02 05:02:55;;;;;;;;;;;19.20;99.90;;;;;;5064690;28;20195;-64
2022/08/02 05:05:23;;;;;;;;;;;19.30;99.90;;;;;;5064828;28;20132;-64
2022/08/02 05:07:51;;;;;;;;;;;19.40;99.90;;;;;;5067216;28;20203;-64
2022/08/02 05:10:18;;;;;;;;;;;19.50;99.90;;;;;;5067161;28;20201;-64
2022/08/02 05:12:46;;;;;;;;;;;19.60;99.90;;;;;;5064524;28;20736;-64
2022/08/02 05:15:17;;;;;;;;;;;19.60;99.90;;;;;;5062587;28;20214;-64
2022/08/02 05:17:45;;;;;;;;;;;19.60;99.90;;;;;;5068272;28;20212;-64
2022/08/02 05:20:15;;;;;;;;;;;19.70;99.90;;;;;;5064834;28;20324;-64
2022/08/02 05:22:43;;;;;;;;;;;19.60;99.90;;;;;;5064362;28;20266;-64
2022/08/02 05:25:11;;;;;;;;;;;19.70;99.90;;;;;;5067790;28;20198;-63
2022/08/02 05:27:39;;;;;;;;;;;19.70;99.90;;;;;;5069057;28;20223;-64
2022/08/02 05:30:07;;;;;;;;;;;19.70;99.90;;;;;;5065785;28;20195;-64
2022/08/02 05:32:42;;;;;;;;;;;19.60;99.90;;;;;;5066828;28;20220;-64
2022/08/02 05:35:10;;;;;;;;;;;19.60;99.90;;;;;;5067083;28;20205;-64
2022/08/02 05:37:37;;;;;;;;;;;19.60;99.90;;;;;;5070115;28;20261;-64
2022/08/02 05:40:09;;;;;;;;;;;19.60;99.90;;;;;;5066139;28;20196;-64
2022/08/02 05:42:40;;;;;;;;;;;19.70;99.90;;;;;;5066826;28;20199;-64
2022/08/02 05:45:08;;;;;;;;;;;19.70;99.90;;;;;;5065605;28;20198;-63
2022/08/02 05:47:37;;;;;;;;;;;19.80;99.90;;;;;;5065629;28;20196;-64
2022/08/02 05:50:06;;;;;;;;;;;19.90;99.90;;;;;;5062154;28;20217;-62
2022/08/02 05:52:41;;;;;;;;;;;20.00;99.90;;;;;;5048459;28;20210;-64
2022/08/02 05:55:12;;;;;;;;;;;20.10;99.90;;;;;;5066114;28;20201;-62
2022/08/02 05:57:42;;;;;;;;;;;20.20;99.90;;;;;;5069704;28;20213;-62
2022/08/02 06:00:12;;;;;;;;;;;20.20;99.90;;;;;;5063149;28;20194;-63
2022/08/02 06:02:58;;;;;;;;;;;20.20;99.90;;;;;;5069812;28;20244;-62
2022/08/02 06:05:27;;;;;;;;;;;20.30;99.90;;;;;;5066228;28;20198;-63
2022/08/02 06:07:58;;;;;;;;;;;20.50;99.90;;;;;;5067330;28;20201;-63
2022/08/02 06:10:27;;;;;;;;;;;20.50;99.90;;;;;;5070483;28;20537;-64
2022/08/02 06:13:01;;;;;;;;;;;20.60;99.90;;;;;;5069893;28;20205;-65
2022/08/02 06:15:29;;;;;;;;;;;20.70;99.90;;;;;;5070211;28;20215;-63
2022/08/02 06:17:59;;;;;;;;;;;20.80;99.90;;;;;;5069305;28;20198;-64
2022/08/02 06:20:27;;;;;;;;;;;20.80;99.90;;;;;;5065501;28;20196;-64
2022/08/02 06:22:55;;;;;;;;;;;21.00;99.90;;;;;;5065436;28;20202;-64
2022/08/02 06:25:23;;;;;;;;;;;21.00;99.90;;;;;;5073988;28;20605;-65
2022/08/02 06:28:13;;;;;;;;;;;21.10;99.90;;;;;;5069574;28;20280;-63
2022/08/02 06:30:41;;;;;;;;;;;21.10;99.90;;;;;;5073934;28;20182;-64
2022/08/02 06:33:11;;;;;;;;;;;21.20;99.90;;;;;;5073200;28;20198;-65
2022/08/02 06:35:43;;;;;;;;;;;21.20;99.90;;;;;;5072378;28;20206;-64
2022/08/02 06:38:14;;;;;;;;;;;21.10;99.90;;;;;;5064241;28;20205;-64
2022/08/02 06:40:43;;;;;;;;;;;21.10;99.90;;;;;;5068827;28;20198;-63
2022/08/02 06:43:12;;;;;;;;;;;21.00;99.90;;;;;;5066124;28;20197;-65
2022/08/02 06:45:40;;;;;;;;;;;21.10;99.90;;;;;;5065886;28;20228;-65
2022/08/02 06:48:09;;;;;;;;;;;21.30;99.90;;;;;;5061888;28;20194;-64
2022/08/02 06:50:40;;;;;;;;;;;21.50;99.90;;;;;;5065138;28;20650;-65
2022/08/02 06:53:08;;;;;;;;;;;21.60;99.90;;;;;;5070839;28;20204;-64
2022/08/02 06:55:36;;;;;;;;;;;21.80;99.90;;;;;;5069850;28;20202;-63
2022/08/02 06:58:11;;;;;;;;;;;21.90;99.90;;;;;;5068373;28;20280;-66
2022/08/02 07:00:39;;;;;;;;;;;22.10;99.90;;;;;;5064153;28;20255;-64
2022/08/02 07:03:07;;;;;;;;;;;22.20;99.90;;;;;;5066352;28;20193;-64
2022/08/02 07:05:34;;;;;;;;;;;22.30;99.90;;;;;;5064603;28;20243;-64
2022/08/02 07:08:04;;;;;;;;;;;22.40;99.90;;;;;;5066625;28;20218;-63
2022/08/02 07:10:32;;;;;;;;;;;22.30;99.90;;;;;;5067801;28;20562;-64
2022/08/02 07:12:59;;;;;;;;;;;22.30;99.90;;;;;;5069917;28;20198;-64
2022/08/02 07:15:27;;;;;;;;;;;22.40;99.90;;;;;;5070829;28;20617;-64
2022/08/02 07:17:55;;;;;;;;;;;22.50;99.90;;;;;;5061832;28;20206;-63
2022/08/02 07:20:23;;;;;;;;;;;22.70;99.90;;;;;;5067527;28;20186;-64
2022/08/02 07:22:50;;;;;;;;;;;22.80;99.90;;;;;;5064273;28;20901;-63
2022/08/02 07:25:19;;;;;;;;;;;23.00;99.90;;;;;;5070914;28;20243;-65
2022/08/02 07:27:49;;;;;;;;;;;23.10;99.90;;;;;;5066566;28;20202;-64
2022/08/02 07:30:17;;;;;;;;;;;23.40;99.90;;;;;;5070829;28;20195;-64
2022/08/02 07:32:45;;;;;;;;;;;23.60;99.90;;;;;;5063515;28;20572;-64
2022/08/02 07:35:12;;;;;;;;;;;23.60;99.90;;;;;;5068664;28;20222;-65
2022/08/02 07:37:47;;;;;;;;;;;23.60;99.90;;;;;;5065202;28;20758;-64
2022/08/02 07:40:26;;;;;;;;;;;23.60;99.90;;;;;;5066440;28;20197;-64
2022/08/02 07:42:54;;;;;;;;;;;23.70;99.90;;;;;;5070250;28;20216;-64
2022/08/02 07:45:30;;;;;;;;;;;23.90;99.90;;;;;;5070891;28;20260;-64
2022/08/02 07:47:58;;;;;;;;;;;24.10;99.90;;;;;;5067220;28;20740;-64
2022/08/02 07:50:27;;;;;;;;;;;24.30;99.90;;;;;;5063726;28;20214;-64
2022/08/02 07:52:54;;;;;;;;;;;24.60;99.90;;;;;;5070439;28;20277;-66
2022/08/02 07:55:26;;;;;;;;;;;24.70;99.90;;;;;;5066140;28;20209;-66
2022/08/02 07:58:06;;;;;;;;;;;24.80;99.90;;;;;;5065948;28;20197;-67
2022/08/02 08:00:40;;;;;;;;;;;25.00;99.90;;;;;;5086558;22;20289;-65
2022/08/02 08:03:08;;;;;;;;;;;25.10;99.90;;;;;;5059974;28;20333;-65
2022/08/02 08:05:36;;;;;;;;;;;25.20;99.90;;;;;;5055824;28;20197;-64
2022/08/02 08:08:04;;;;;;;;;;;25.40;99.90;;;;;;5056531;28;20235;-64
2022/08/02 08:10:34;;;;;;;;;;;25.50;99.90;;;;;;5049746;28;20201;-65
2022/08/02 08:13:01;;;;;;;;;;;25.60;99.90;;;;;;5044802;28;20245;-64
2022/08/02 08:15:29;;;;;;;;;;;25.70;99.90;;;;;;5049459;28;20229;-64
2022/08/02 08:17:57;;;;;;;;;;;25.80;99.90;;;;;;5048796;28;20194;-64
2022/08/02 08:20:25;;;;;;;;;;;25.90;99.90;;;;;;5050483;28;20209;-64
2022/08/02 08:22:53;;;;;;;;;;;26.00;99.60;;;;;;5048811;28;20676;-65
2022/08/02 08:25:20;;;;;;;;;;;26.20;98.90;;;;;;5049083;28;20203;-65
2022/08/02 08:27:51;;;;;;;;;;;26.20;97.90;;;;;;5049589;28;20194;-65
2022/08/02 08:30:19;;;;;;;;;;;26.10;99.10;;;;;;5038886;28;20195;-65
2022/08/02 08:32:47;;;;;;;;;;;26.30;98.90;;;;;;5042046;28;20290;-64
2022/08/02 08:35:16;;;;;;;;;;;26.50;99.50;;;;;;5039272;28;20203;-65
2022/08/02 08:37:43;;;;;;;;;;;26.80;99.20;;;;;;5039779;28;20218;-64
2022/08/02 08:40:11;;;;;;;;;;;26.90;99.00;;;;;;5038798;28;20248;-65
2022/08/02 08:42:46;;;;;;;;;;;27.20;99.00;;;;;;5047637;28;20201;-64
2022/08/02 08:45:16;;;;;;;;;;;27.40;98.30;;;;;;5042305;28;20229;-65
2022/08/02 08:47:47;;;;;;;;;;;27.50;98.40;;;;;;5042989;28;20198;-64
2022/08/02 08:50:18;;;;;;;;;;;27.70;98.30;;;;;;5039549;28;20205;-64
2022/08/02 08:52:53;;;;;;;;;;;27.90;98.10;;;;;;5045279;28;20841;-64
2022/08/02 08:55:23;;;;;;;;;;;27.90;98.20;;;;;;5057396;28;20256;-64
2022/08/02 08:57:51;;;;;;;;;;;28.10;98.40;;;;;;5056486;28;20639;-64
2022/08/02 09:00:20;;;;;;;;;;;28.20;97.10;;;;;;5054835;28;20206;-64
2022/08/02 09:02:48;;;;;;;;;;;28.00;96.40;;;;;;5052091;28;20194;-64
2022/08/02 09:05:16;;;;;;;;;;;27.90;97.50;;;;;;5055995;28;20590;-65
2022/08/02 09:07:47;;;;;;;;;;;28.30;97.00;;;;;;5052705;28;20668;-64
2022/08/02 09:10:37;;;;;;;;;;;28.40;96.80;;;;;;5056545;28;20190;-65
2022/08/02 09:13:06;;;;;;;;;;;28.70;97.00;;;;;;5046626;28;20237;-65
2022/08/02 09:15:56;;;;;;;;;;;29.00;96.00;;;;;;5066934;28;20774;-65
2022/08/02 09:18:29;;;;;;;;;;;29.30;95.30;;;;;;5066377;28;20267;-64
2022/08/02 09:20:58;;;;;;;;;;;29.40;94.60;;;;;;5050443;28;20244;-64
2022/08/02 09:23:33;;;;;;;;;;;29.30;93.80;;;;;;5054896;28;20284;-65
2022/08/02 09:26:05;;;;;;;;;;;29.10;93.80;;;;;;5053030;28;21286;-65
2022/08/02 09:28:35;;;;;;;;;;;29.20;94.70;;;;;;5052227;28;20224;-65
2022/08/02 09:31:06;;;;;;;;;;;29.60;93.90;;;;;;5052364;28;20248;-64
2022/08/02 09:33:34;;;;;;;;;;;29.70;93.00;;;;;;5049900;28;20552;-65
2022/08/02 09:36:03;;;;;;;;;;;30.00;93.80;;;;;;5060086;28;20199;-64
2022/08/02 09:38:35;;;;;;;;;;;30.20;93.10;;;;;;5051204;28;20621;-64
2022/08/02 09:41:03;;;;;;;;;;;30.30;93.10;;;;;;5051651;28;20194;-66
2022/08/02 09:43:38;;;;;;;;;;;30.70;92.50;;;;;;5056772;28;20202;-65
2022/08/02 09:46:28;;;;;;;;;;;30.80;91.70;;;;;;5051516;28;20384;-65
2022/08/02 09:48:56;;;;;;;;;;;30.90;91.20;;;;;;5057219;28;20198;-64
2022/08/02 09:51:25;;;;;;;;;;;30.90;90.90;;;;;;5049346;28;20194;-65
2022/08/02 09:53:53;;;;;;;;;;;30.90;91.40;;;;;;5053076;28;20221;-64
2022/08/02 09:56:42;;;;;;;;;;;30.80;90.20;;;;;;5051439;28;20201;-65
2022/08/02 09:59:10;;;;;;;;;;;30.70;90.10;;;;;;5051700;28;20255;-65
2022/08/02 10:01:39;;;;;;;;;;;30.80;89.60;;;;;;5062238;28;20268;-65
2022/08/02 10:04:27;;;;;;;;;;;31.20;90.90;;;;;;5051017;28;20204;-64
2022/08/02 10:06:55;;;;;;;;;;;31.50;87.70;;;;;;5057757;28;20194;-65
2022/08/02 10:09:23;;;;;;;;;;;31.50;87.80;;;;;;5054553;28;20626;-65
2022/08/02 10:11:51;;;;;;;;;;;31.80;87.80;;;;;;5057183;28;20194;-64
2022/08/02 10:14:20;;;;;;;;;;;31.50;86.30;;;;;;5050094;28;20202;-65
2022/08/02 10:16:49;;;;;;;;;;;31.70;85.80;;;;;;5041555;28;20221;-66
2022/08/02 10:19:17;;;;;;;;;;;31.80;85.00;;;;;;5042377;28;20232;-65
2022/08/02 10:22:06;;;;;;;;;;;32.20;85.80;;;;;;5044018;28;20301;-65
2022/08/02 10:24:36;;;;;;;;;;;32.30;84.30;;;;;;5042986;28;20194;-65
2022/08/02 10:27:03;;;;;;;;;;;32.40;85.70;;;;;;5043736;28;20199;-65
2022/08/02 10:29:34;;;;;;;;;;;32.80;84.40;;;;;;5045008;28;20198;-65
2022/08/02 10:32:24;;;;;;;;;;;32.70;81.90;;;;;;5049446;28;20216;-64
2022/08/02 10:34:53;;;;;;;;;;;32.70;82.10;;;;;;5060724;28;20202;-64
2022/08/02 10:37:28;;;;;;;;;;;32.90;82.10;;;;;;5054881;28;20207;-65
2022/08/02 10:39:56;;;;;;;;;;;33.20;81.30;;;;;;5058043;28;20195;-65
2022/08/02 10:42:43;;;;;;;;;;;33.40;81.60;;;;;;5048280;28;20660;-65
2022/08/02 10:45:13;;;;;;;;;;;33.50;80.20;;;;;;5051973;28;20177;-64
2022/08/02 10:50:53;;;;;;;;;;;32.50;82.10;;;;;;5101842;27;20063;-65
2022/08/02 10:53:22;;;;;;;;;;;32.10;81.80;;;;;;5081867;28;20707;-64
2022/08/02 10:55:51;;;;;;;;;;;31.90;81.60;;;;;;5073918;28;20209;-66
2022/08/02 10:58:20;;;;;;;;;;;32.10;82.10;;;;;;5073402;28;20201;-65
2022/08/02 11:00:53;;;;;;;;;;;32.10;81.90;;;;;;5075837;28;20202;-64
2022/08/02 11:03:39;;;;;;;;;;;32.40;79.90;;;;;;5076865;28;20213;-64
2022/08/02 11:06:09;;;;;;;;;;;32.60;78.80;;;;;;5069378;28;20201;-65
2022/08/02 11:09:25;;;;;;;;;;;32.80;79.10;;;;;;5068892;28;20232;-64
2022/08/02 11:12:03;;;;;;;;;;;33.30;77.70;;;;;;5079378;28;20793;-65
2022/08/02 11:14:31;;;;;;;;;;;32.90;77.30;;;;;;5069032;28;20201;-64
2022/08/02 11:17:05;;;;;;;;;;;32.80;76.80;;;;;;5069139;28;20198;-64
2022/08/02 11:19:34;;;;;;;;;;;32.90;76.40;;;;;;5087140;28;20909;-64
2022/08/02 11:22:11;;;;;;;;;;;32.70;77.10;;;;;;5074497;28;20333;-64
2022/08/02 11:24:41;;;;;;;;;;;33.00;77.20;;;;;;5081215;28;20197;-65
2022/08/02 11:27:16;;;;;;;;;;;33.00;76.20;;;;;;5078148;28;20215;-65
2022/08/02 11:29:45;;;;;;;;;;;33.30;76.90;;;;;;5068423;28;20579;-64
2022/08/02 11:32:16;;;;;;;;;;;33.40;75.50;;;;;;5071057;28;20650;-65
2022/08/02 11:34:45;;;;;;;;;;;33.70;76.00;;;;;;5081771;28;20202;-65
2022/08/02 11:37:26;;;;;;;;;;;34.20;76.00;;;;;;5076124;28;20259;-64
2022/08/02 11:39:54;;;;;;;;;;;33.80;75.80;;;;;;5072416;28;20254;-64
2022/08/02 11:42:22;;;;;;;;;;;33.70;75.10;;;;;;5069818;28;20696;-64
2022/08/02 11:44:50;;;;;;;;;;;33.50;75.30;;;;;;5069956;28;20209;-65
2022/08/02 11:47:18;;;;;;;;;;;33.60;76.00;;;;;;5070244;28;20194;-64
2022/08/02 11:49:46;;;;;;;;;;;33.80;76.00;;;;;;5082498;28;20209;-64
2022/08/02 11:52:15;;;;;;;;;;;33.70;74.20;;;;;;5090157;28;20781;-65
2022/08/02 11:54:43;;;;;;;;;;;33.00;75.80;;;;;;5095619;28;20223;-64
2022/08/02 11:57:12;;;;;;;;;;;32.80;75.40;;;;;;5088277;28;20238;-64
2022/08/02 11:59:47;;;;;;;;;;;32.70;76.20;;;;;;5096889;28;20288;-64
2022/08/02 12:02:15;;;;;;;;;;;32.60;75.70;;;;;;5076745;28;20732;-64
2022/08/02 12:04:43;;;;;;;;;;;32.90;77.50;;;;;;5093427;28;20242;-65
2022/08/02 12:07:11;;;;;;;;;;;33.30;75.50;;;;;;5075116;28;20189;-65
2022/08/02 12:09:42;;;;;;;;;;;34.00;75.40;;;;;;5076007;28;20186;-65
2022/08/02 12:12:10;;;;;;;;;;;34.60;75.20;;;;;;5082107;28;20198;-65
2022/08/02 12:14:42;;;;;;;;;;;34.90;73.70;;;;;;5082987;28;20180;-66
2022/08/02 12:19:55;;;;;;;;;;;35.20;73.90;;;;;;5085196;28;20265;-65
2022/08/02 12:22:24;;;;;;;;;;;35.50;72.00;;;;;;5081093;28;20245;-64
2022/08/02 12:24:56;;;;;;;;;;;35.90;71.60;;;;;;5083708;28;20187;-64
2022/08/02 12:27:28;;;;;;;;;;;35.90;71.50;;;;;;5080173;28;20674;-64
2022/08/02 12:29:58;;;;;;;;;;;36.10;72.70;;;;;;5081917;28;20570;-64
2022/08/02 12:32:27;;;;;;;;;;;35.80;72.30;;;;;;5087445;28;20173;-64
2022/08/02 12:35:01;;;;;;;;;;;35.70;71.50;;;;;;5081395;28;20187;-65
2022/08/02 12:37:29;;;;;;;;;;;35.60;70.80;;;;;;5082856;28;20179;-64
2022/08/02 12:39:58;;;;;;;;;;;35.40;70.60;;;;;;5079747;28;20202;-65
2022/08/02 12:42:26;;;;;;;;;;;35.40;70.30;;;;;;5079587;28;20194;-66
2022/08/02 12:44:57;;;;;;;;;;;35.30;69.70;;;;;;5081122;28;20176;-64
2022/08/02 12:47:25;;;;;;;;;;;35.10;69.50;;;;;;5084043;28;20606;-64
2022/08/02 12:50:12;;;;;;;;;;;35.30;69.40;;;;;;5083847;28;20200;-64
2022/08/02 12:52:40;;;;;;;;;;;35.70;68.90;;;;;;5078862;28;20180;-64
2022/08/02 12:55:19;;;;;;;;;;;35.90;68.80;;;;;;5084002;28;20167;-64
2022/08/02 12:57:58;;;;;;;;;;;36.20;67.60;;;;;;5079361;28;20184;-69
2022/08/02 13:00:27;;;;;;;;;;;36.10;68.10;;;;;;5077912;28;20214;-64
2022/08/02 13:02:55;;;;;;;;;;;35.80;68.60;;;;;;5079312;28;20268;-65
2022/08/02 13:05:23;;;;;;;;;;;35.80;68.20;;;;;;5076817;28;20190;-63
2022/08/02 13:07:51;;;;;;;;;;;35.50;68.80;;;;;;5081041;28;20732;-67
2022/08/02 13:10:21;;;;;;;;;;;35.50;68.90;;;;;;5083278;28;20566;-66
2022/08/02 13:12:49;;;;;;;;;;;35.70;68.60;;;;;;5073912;28;20180;-67
2022/08/02 13:15:17;;;;;;;;;;;36.00;67.40;;;;;;5076663;28;20187;-64
2022/08/02 13:18:05;;;;;;;;;;;36.20;67.30;;;;;;5080065;28;20182;-64
2022/08/02 13:20:32;;;;;;;;;;;36.20;67.20;;;;;;5090448;28;21072;-65
2022/08/02 13:23:01;;;;;;;;;;;35.40;67.30;;;;;;5074999;28;20176;-63
2022/08/02 13:25:32;;;;;;;;;;;35.40;68.70;;;;;;5074322;28;20190;-64
2022/08/02 13:27:59;;;;;;;;;;;35.20;66.90;;;;;;5079187;28;20336;-64
2022/08/02 13:30:28;;;;;;;;;;;34.90;66.50;;;;;;5077643;28;20204;-65
2022/08/02 13:32:55;;;;;;;;;;;35.40;67.60;;;;;;5076099;28;21611;-65
2022/08/02 13:35:28;;;;;;;;;;;35.70;65.90;;;;;;5076113;28;20766;-67
2022/08/02 13:37:55;;;;;;;;;;;35.70;67.20;;;;;;5074076;28;20240;-66
2022/08/02 13:40:23;;;;;;;;;;;36.00;66.70;;;;;;5086666;28;20218;-67
2022/08/02 13:42:52;;;;;;;;;;;36.50;66.20;;;;;;5076538;28;20191;-64
2022/08/02 13:45:20;;;;;;;;;;;36.50;65.80;;;;;;5073801;28;20814;-64
2022/08/02 13:47:48;;;;;;;;;;;36.70;64.90;;;;;;5090025;28;20313;-64
2022/08/02 13:50:32;;;;;;;;;;;36.60;65.20;;;;;;5074816;28;20214;-64
2022/08/02 13:53:00;;;;;;;;;;;36.80;66.00;;;;;;5086421;28;20183;-68
2022/08/02 13:55:27;;;;;;;;;;;37.10;65.60;;;;;;5076309;28;20190;-67
2022/08/02 13:57:57;;;;;;;;;;;36.80;63.30;;;;;;5074653;28;20224;-65
2022/08/02 14:00:25;;;;;;;;;;;36.70;64.30;;;;;;5085087;28;20581;-66
2022/08/02 14:03:04;;;;;;;;;;;36.70;64.60;;;;;;5075152;28;21875;-64
2022/08/02 14:05:32;;;;;;;;;;;36.90;63.40;;;;;;5071999;28;20196;-65
2022/08/02 14:08:15;;;;;;;;;;;37.20;64.30;;;;;;5074497;28;20199;-66
2022/08/02 14:10:44;;;;;;;;;;;37.00;63.80;;;;;;5075710;28;20228;-66
2022/08/02 14:13:13;;;;;;;;;;;36.70;63.50;;;;;;5076431;28;20179;-66
2022/08/02 14:15:42;;;;;;;;;;;37.10;64.40;;;;;;5077366;28;20197;-66
2022/08/02 14:18:10;;;;;;;;;;;37.60;64.10;;;;;;5075605;28;20571;-67
2022/08/02 14:20:37;;;;;;;;;;;37.20;62.90;;;;;;5075143;28;20262;-65
2022/08/02 14:23:06;;;;;;;;;;;36.90;63.70;;;;;;5075890;28;21166;-64
2022/08/02 14:25:34;;;;;;;;;;;37.10;63.40;;;;;;5074693;28;21681;-65
2022/08/02 14:28:01;;;;;;;;;;;37.10;63.10;;;;;;5074239;28;20194;-64
2022/08/02 14:30:31;;;;;;;;;;;37.40;64.50;;;;;;5071620;28;20222;-66
2022/08/02 14:32:59;;;;;;;;;;;37.00;63.30;;;;;;5079840;28;20190;-64
2022/08/02 14:35:26;;;;;;;;;;;36.40;63.20;;;;;;5082232;28;20180;-67
2022/08/02 14:37:54;;;;;;;;;;;36.10;63.70;;;;;;5080981;28;20198;-66
2022/08/02 14:40:23;;;;;;;;;;;36.00;64.00;;;;;;5075384;28;20581;-66
2022/08/02 14:42:58;;;;;;;;;;;35.70;63.50;;;;;;5077028;28;20869;-66
2022/08/02 14:45:28;;;;;;;;;;;35.60;63.70;;;;;;5071332;28;20191;-64